createdAt,value
2022-10-03T00:01:57.797Z,9.80
2022-10-03T00:04:52.103Z,9.90
2022-10-03T00:07:47.351Z,9.70
2022-10-03T00:10:42.871Z,9.60
2022-10-03T00:13:35.979Z,9.50
2022-10-03T00:16:29.719Z,9.50
2022-10-03T00:19:21.961Z,9.40
2022-10-03T00:22:18.564Z,9.40
2022-10-03T00:25:22.319Z,9.40
2022-10-03T00:28:17.337Z,9.30
2022-10-03T00:31:12.462Z,9.30
2022-10-03T00:34:04.874Z,9.30
2022-10-03T00:36:55.633Z,9.20
2022-10-03T00:39:49.194Z,9.20
2022-10-03T00:42:48.907Z,9.10
2022-10-03T00:45:46.530Z,9.20
2022-10-03T00:48:53.144Z,8.10
2022-10-03T00:51:53.393Z,9.10
2022-10-03T00:54:47.620Z,9.10
2022-10-03T00:57:49.328Z,9.00
2022-10-03T01:00:37.528Z,9.00
2022-10-03T01:03:31.371Z,9.00
2022-10-03T01:06:24.931Z,9.00
2022-10-03T01:09:20.249Z,8.90
2022-10-03T01:12:18.364Z,8.90
2022-10-03T01:15:22.875Z,8.90
2022-10-03T01:18:18.665Z,8.90
2022-10-03T01:21:11.358Z,8.80
2022-10-03T01:24:05.176Z,8.70
2022-10-03T01:26:56.221Z,8.70
2022-10-03T01:30:05.995Z,8.70
2022-10-03T01:32:56.813Z,8.70
2022-10-03T01:35:48.999Z,8.60
2022-10-03T01:38:41.654Z,8.60
2022-10-03T01:41:33.903Z,8.50
2022-10-03T01:44:25.301Z,8.40
2022-10-03T01:47:20.664Z,8.50
2022-10-03T01:50:14.731Z,8.50
2022-10-03T01:53:07.056Z,8.50
2022-10-03T01:55:58.049Z,8.60
2022-10-03T01:58:50.842Z,8.50
2022-10-03T02:01:46.577Z,8.40
2022-10-03T02:04:42.929Z,8.50
2022-10-03T02:07:36.258Z,8.40
2022-10-03T02:10:29.401Z,8.20
2022-10-03T02:13:20.772Z,8.10
2022-10-03T02:16:11.621Z,8.10
2022-10-03T02:19:01.834Z,8.00
2022-10-03T02:21:53.045Z,8.00
2022-10-03T02:24:44.586Z,8.10
2022-10-03T02:27:52.767Z,8.20
2022-10-03T02:30:47.881Z,8.30
2022-10-03T02:33:50.419Z,8.30
2022-10-03T02:36:56.393Z,8.40
2022-10-03T02:40:11.151Z,8.30
2022-10-03T02:43:17.248Z,8.30
2022-10-03T02:46:29.395Z,8.40
2022-10-03T02:49:35.979Z,8.20
2022-10-03T02:52:54.104Z,8.20
2022-10-03T02:55:48.584Z,8.10
2022-10-03T02:58:46.634Z,8.10
2022-10-03T03:01:45.701Z,8.10
2022-10-03T03:04:48.050Z,8.10
2022-10-03T03:07:40.345Z,8.10
2022-10-03T03:10:39.539Z,8.10
2022-10-03T03:13:40.865Z,8.10
2022-10-03T03:16:53.124Z,8.20
2022-10-03T03:19:58.220Z,8.00
2022-10-03T03:22:51.964Z,8.00
2022-10-03T03:25:50.389Z,7.80
2022-10-03T03:28:43.963Z,7.80
2022-10-03T03:31:36.530Z,7.90
2022-10-03T03:34:30.758Z,7.90
2022-10-03T03:37:21.847Z,7.90
2022-10-03T03:40:15.819Z,7.90
2022-10-03T03:43:11.683Z,8.00
2022-10-03T03:46:12.002Z,8.00
2022-10-03T03:49:04.788Z,8.00
2022-10-03T03:51:59.418Z,8.10
2022-10-03T03:55:03.743Z,8.00
2022-10-03T03:58:02.556Z,7.90
2022-10-03T04:01:03.427Z,7.90
2022-10-03T04:03:58.763Z,8.10
2022-10-03T04:06:55.047Z,8.00
2022-10-03T04:10:03.418Z,7.80
2022-10-03T04:13:05.046Z,7.50
2022-10-03T04:16:03.708Z,7.40
2022-10-03T04:18:59.731Z,7.30
2022-10-03T04:21:57.878Z,7.30
2022-10-03T04:24:55.256Z,6.80
2022-10-03T04:27:49.775Z,7.60
2022-10-03T04:30:42.445Z,7.70
2022-10-03T04:33:41.928Z,7.80
2022-10-03T04:36:56.434Z,7.70
2022-10-03T04:39:48.950Z,7.40
2022-10-03T04:42:41.130Z,7.30
2022-10-03T04:45:35.550Z,7.30
2022-10-03T04:48:29.886Z,7.30
2022-10-03T04:51:22.297Z,7.20
2022-10-03T04:54:18.957Z,7.30
2022-10-03T04:57:13.349Z,7.40
2022-10-03T05:00:05.549Z,7.40
2022-10-03T05:02:57.150Z,7.50
2022-10-03T05:05:51.722Z,7.60
2022-10-03T05:08:44.377Z,7.50
2022-10-03T05:11:40.467Z,7.50
2022-10-03T05:14:34.070Z,8.30
2022-10-03T05:17:25.350Z,7.20
2022-10-03T05:20:26.299Z,7.20
2022-10-03T05:23:20.856Z,7.10
2022-10-03T05:26:43.141Z,7.00
2022-10-03T05:29:26.580Z,7.00
2022-10-03T05:32:19.148Z,6.80
2022-10-03T05:35:24.123Z,6.80
2022-10-03T05:38:23.434Z,6.70
2022-10-03T05:41:25.792Z,6.60
2022-10-03T05:44:17.151Z,6.60
2022-10-03T05:47:28.835Z,6.50
2022-10-03T05:50:42.129Z,6.50
2022-10-03T05:53:50.299Z,6.80
2022-10-03T05:56:45.807Z,7.00
2022-10-03T05:59:41.261Z,8.30
2022-10-03T06:02:41.270Z,5.00
2022-10-03T06:05:32.020Z,7.40
2022-10-03T06:08:28.000Z,7.50
2022-10-03T06:11:21.964Z,7.40
2022-10-03T06:14:18.798Z,6.10
2022-10-03T06:17:26.408Z,7.50
2022-10-03T06:20:23.282Z,7.40
2022-10-03T06:23:22.053Z,7.40
2022-10-03T06:26:36.300Z,7.30
2022-10-03T06:29:57.243Z,7.90
2022-10-03T06:32:56.569Z,7.30
2022-10-03T06:36:07.651Z,7.30
2022-10-03T06:39:13.597Z,7.40
2022-10-03T06:42:20.435Z,7.40
2022-10-03T06:45:33.032Z,7.50
2022-10-03T06:48:35.629Z,7.60
2022-10-03T06:51:44.705Z,7.60
2022-10-03T06:54:54.416Z,7.80
2022-10-03T06:57:55.062Z,7.70
2022-10-03T07:00:54.816Z,7.80
2022-10-03T07:03:58.592Z,7.80
2022-10-03T07:06:58.828Z,7.60
2022-10-03T07:09:55.900Z,8.00
2022-10-03T07:13:02.808Z,9.30
2022-10-03T07:16:21.078Z,8.00
2022-10-03T07:19:24.354Z,8.10
2022-10-03T07:22:30.309Z,8.10
2022-10-03T07:25:33.697Z,8.20
2022-10-03T07:28:28.318Z,8.30
2022-10-03T07:31:24.605Z,8.30
2022-10-03T07:34:34.653Z,8.40
2022-10-03T07:37:48.170Z,8.50
2022-10-03T07:40:59.571Z,8.50
2022-10-03T07:43:56.508Z,8.60
2022-10-03T07:46:52.756Z,8.60
2022-10-03T07:49:58.152Z,8.70
2022-10-03T07:52:58.535Z,8.70
2022-10-03T07:55:54.455Z,8.80
2022-10-03T07:58:58.313Z,8.90
2022-10-03T08:02:05.371Z,9.30
2022-10-03T08:05:16.045Z,9.00
2022-10-03T08:08:12.477Z,9.10
2022-10-03T08:11:14.224Z,9.40
2022-10-03T08:14:11.745Z,9.30
2022-10-03T08:17:29.736Z,9.40
2022-10-03T08:20:25.549Z,9.50
2022-10-03T08:23:24.434Z,9.60
2022-10-03T08:26:18.480Z,9.60
2022-10-03T08:29:16.673Z,9.80
2022-10-03T08:32:17.878Z,9.80
2022-10-03T08:35:24.392Z,10.00
2022-10-03T08:38:19.779Z,10.00
2022-10-03T08:41:28.763Z,10.10
2022-10-03T08:44:31.760Z,10.30
2022-10-03T08:47:34.422Z,10.20
2022-10-03T08:50:34.599Z,10.30
2022-10-03T08:53:40.528Z,10.40
2022-10-03T08:56:35.958Z,10.50
2022-10-03T08:59:50.787Z,10.60
2022-10-03T09:03:20.538Z,10.70
2022-10-03T09:06:24.860Z,10.80
2022-10-03T09:09:22.009Z,11.20
2022-10-03T09:12:22.135Z,10.60
2022-10-03T09:15:19.810Z,11.10
2022-10-03T09:18:28.170Z,11.20
2022-10-03T09:21:37.264Z,11.30
2022-10-03T09:24:46.565Z,9.70
2022-10-03T09:27:43.439Z,11.50
2022-10-03T09:30:39.718Z,11.40
2022-10-03T09:33:48.549Z,11.60
2022-10-03T09:36:49.670Z,11.60
2022-10-03T09:39:58.937Z,11.80
2022-10-03T09:43:04.897Z,11.90
2022-10-03T09:46:04.877Z,12.10
2022-10-03T09:49:13.841Z,12.20
2022-10-03T09:52:10.404Z,12.30
2022-10-03T09:55:14.667Z,12.50
2022-10-03T09:58:13.116Z,12.80
2022-10-03T10:01:10.483Z,12.90
2022-10-03T10:04:53.015Z,13.00
2022-10-03T10:07:57.082Z,13.30
2022-10-03T10:11:01.691Z,12.50
2022-10-03T10:14:08.205Z,13.50
2022-10-03T10:17:26.527Z,12.20
2022-10-03T10:20:26.404Z,13.80
2022-10-03T10:23:25.475Z,13.90
2022-10-03T10:26:31.901Z,14.00
2022-10-03T10:29:29.977Z,14.10
2022-10-03T10:32:35.669Z,14.20
2022-10-03T10:35:53.681Z,14.40
2022-10-03T10:39:00.257Z,14.40
2022-10-03T10:42:13.380Z,14.40
2022-10-03T10:45:17.150Z,14.30
2022-10-03T10:48:23.926Z,14.60
2022-10-03T10:51:27.820Z,14.60
2022-10-03T10:54:34.126Z,14.90
2022-10-03T10:57:43.329Z,15.30
2022-10-03T11:00:42.973Z,14.20
2022-10-03T11:03:45.813Z,15.50
2022-10-03T11:06:53.710Z,15.60
2022-10-03T11:09:53.350Z,15.70
2022-10-03T11:13:00.961Z,15.80
2022-10-03T11:16:06.127Z,15.90
2022-10-03T11:19:12.763Z,16.00
2022-10-03T11:22:16.179Z,16.00
2022-10-03T11:25:23.078Z,16.00
2022-10-03T11:28:29.471Z,16.00
2022-10-03T11:31:37.642Z,16.00
2022-10-03T11:34:42.709Z,16.20
2022-10-03T11:37:33.944Z,16.30
2022-10-03T11:40:31.465Z,16.00
2022-10-03T11:43:38.006Z,16.10
2022-10-03T11:46:33.901Z,16.10
2022-10-03T11:49:36.332Z,16.10
2022-10-03T11:52:31.416Z,16.20
2022-10-03T11:55:25.587Z,15.50
2022-10-03T11:58:24.578Z,16.50
2022-10-03T12:01:21.898Z,16.50
2022-10-03T12:04:19.307Z,16.60
2022-10-03T12:07:31.783Z,16.50
2022-10-03T12:10:28.205Z,16.40
2022-10-03T12:13:18.760Z,16.20
2022-10-03T12:16:13.497Z,16.10
2022-10-03T12:19:08.578Z,16.00
2022-10-03T12:21:59.294Z,16.00
2022-10-03T12:24:48.550Z,16.00
2022-10-03T12:27:42.069Z,15.80
2022-10-03T12:30:33.372Z,15.80
2022-10-03T12:33:32.869Z,15.80
2022-10-03T12:36:25.177Z,15.60
2022-10-03T12:39:23.256Z,15.60
2022-10-03T12:42:23.048Z,15.50
2022-10-03T12:45:14.173Z,15.40
2022-10-03T12:48:09.489Z,15.30
2022-10-03T12:51:02.904Z,15.20
2022-10-03T12:53:56.613Z,15.20
2022-10-03T12:56:51.906Z,15.10
2022-10-03T12:59:42.475Z,15.00
2022-10-03T13:02:35.592Z,15.10
2022-10-03T13:05:30.817Z,15.10
2022-10-03T13:08:26.448Z,15.20
2022-10-03T13:11:25.962Z,15.20
2022-10-03T13:14:28.736Z,15.20
2022-10-03T13:17:23.036Z,15.20
2022-10-03T13:20:16.216Z,15.20
2022-10-03T13:23:07.046Z,15.20
2022-10-03T13:26:04.234Z,15.20
2022-10-03T13:29:13.968Z,15.20
2022-10-03T13:32:16.522Z,15.20
2022-10-03T13:35:40.051Z,15.30
2022-10-03T13:38:47.147Z,15.30
2022-10-03T13:41:46.271Z,15.40
2022-10-03T13:44:37.512Z,17.20
2022-10-03T13:47:30.144Z,16.20
2022-10-03T13:50:20.170Z,15.40
2022-10-03T13:53:13.220Z,15.50
2022-10-03T13:56:07.143Z,15.50
2022-10-03T13:58:57.364Z,15.50
2022-10-03T14:01:51.678Z,15.50
2022-10-03T14:04:50.336Z,15.50
2022-10-03T14:07:43.515Z,15.60
2022-10-03T14:10:46.715Z,15.60
2022-10-03T14:13:43.611Z,15.60
2022-10-03T14:16:35.347Z,15.60
2022-10-03T14:19:33.843Z,15.60
2022-10-03T14:22:37.565Z,15.80
2022-10-03T14:25:27.383Z,15.80
2022-10-03T14:28:21.502Z,15.80
2022-10-03T14:31:14.763Z,15.90
2022-10-03T14:34:08.047Z,15.90
2022-10-03T14:36:58.447Z,16.00
2022-10-03T14:39:55.072Z,15.90
2022-10-03T14:42:52.662Z,16.00
2022-10-03T14:45:42.805Z,15.90
2022-10-03T14:48:32.977Z,15.90
2022-10-03T14:51:25.972Z,15.80
2022-10-03T14:54:22.199Z,16.60
2022-10-03T14:57:15.623Z,15.80
2022-10-03T15:00:03.844Z,15.70
2022-10-03T15:02:53.859Z,15.70
2022-10-03T15:05:53.332Z,15.60
2022-10-03T15:08:43.213Z,15.60
2022-10-03T15:11:32.365Z,15.60
2022-10-03T15:14:19.974Z,15.60
2022-10-03T15:17:18.972Z,15.60
2022-10-03T15:20:07.622Z,15.50
2022-10-03T15:22:57.721Z,15.60
2022-10-03T15:25:45.435Z,15.60
2022-10-03T15:28:38.992Z,15.60
2022-10-03T15:31:30.164Z,15.70
2022-10-03T15:34:19.964Z,16.00
2022-10-03T15:37:10.971Z,16.10
2022-10-03T15:40:03.259Z,16.10
2022-10-03T15:42:53.001Z,16.20
2022-10-03T15:45:41.117Z,16.20
2022-10-03T15:48:30.674Z,16.10
2022-10-03T15:51:21.182Z,15.90
2022-10-03T15:54:10.462Z,15.60
2022-10-03T15:57:02.039Z,15.40
2022-10-03T16:00:00.583Z,15.40
2022-10-03T16:03:00.049Z,15.20
2022-10-03T16:05:55.222Z,15.30
2022-10-03T16:08:51.814Z,15.20
2022-10-03T16:11:42.966Z,15.10
2022-10-03T16:14:35.779Z,15.00
2022-10-03T16:17:29.116Z,14.80
2022-10-03T16:20:19.709Z,14.70
2022-10-03T16:23:12.005Z,14.60
2022-10-03T16:26:02.357Z,14.70
2022-10-03T16:28:52.947Z,14.30
2022-10-03T16:31:45.487Z,14.10
2022-10-03T16:34:35.550Z,14.30
2022-10-03T16:37:26.578Z,13.90
2022-10-03T16:40:19.819Z,13.90
2022-10-03T16:43:11.720Z,13.80
2022-10-03T16:46:01.763Z,13.70
2022-10-03T16:49:09.786Z,13.60
2022-10-03T16:52:00.774Z,13.50
2022-10-03T16:54:51.741Z,13.40
2022-10-03T16:57:42.908Z,13.30
2022-10-03T17:00:34.529Z,13.20
2022-10-03T17:03:23.732Z,13.20
2022-10-03T17:06:21.070Z,13.10
2022-10-03T17:09:15.893Z,13.10
2022-10-03T17:12:04.916Z,14.20
2022-10-03T17:14:54.758Z,12.90
2022-10-03T17:17:46.926Z,12.90
2022-10-03T17:20:39.003Z,13.00
2022-10-03T17:23:35.973Z,12.50
2022-10-03T17:26:28.948Z,12.80
2022-10-03T17:29:19.011Z,12.80
2022-10-03T17:32:14.433Z,12.70
2022-10-03T17:35:11.709Z,12.70
2022-10-03T17:38:47.923Z,12.70
2022-10-03T17:41:35.382Z,12.70
2022-10-03T17:44:34.418Z,12.60
2022-10-03T17:47:29.192Z,12.60
2022-10-03T17:50:19.477Z,12.50
2022-10-03T17:53:13.068Z,12.50
2022-10-03T17:56:02.995Z,12.40
2022-10-03T17:58:54.062Z,12.40
2022-10-03T18:01:44.348Z,12.40
2022-10-03T18:04:34.950Z,12.40
2022-10-03T18:07:24.855Z,12.20
2022-10-03T18:10:24.066Z,12.20
2022-10-03T18:13:19.493Z,12.10
2022-10-03T18:16:19.713Z,12.10
2022-10-03T18:19:20.514Z,12.00
2022-10-03T18:22:20.958Z,12.00
2022-10-03T18:25:33.523Z,12.00
2022-10-03T18:28:23.752Z,11.90
2022-10-03T18:31:13.559Z,11.80
2022-10-03T18:34:04.186Z,11.80
2022-10-03T18:36:55.208Z,11.80
2022-10-03T18:39:44.804Z,11.60
2022-10-03T18:42:32.696Z,11.70
2022-10-03T18:45:27.622Z,11.60
2022-10-03T18:48:20.855Z,12.00
2022-10-03T18:51:18.005Z,11.50
2022-10-03T18:54:08.893Z,11.50
2022-10-03T18:57:03.712Z,11.50
2022-10-03T18:59:56.071Z,11.50
2022-10-03T19:02:47.991Z,11.40
2022-10-03T19:05:43.723Z,11.50
2022-10-03T19:08:35.787Z,11.50
2022-10-03T19:11:28.483Z,11.40
2022-10-03T19:14:18.529Z,9.70
2022-10-03T19:17:25.460Z,11.20
2022-10-03T19:20:19.290Z,11.00
2022-10-03T19:23:09.580Z,11.00
2022-10-03T19:26:01.223Z,11.00
2022-10-03T19:28:49.991Z,10.90
2022-10-03T19:31:40.665Z,10.90
2022-10-03T19:34:33.414Z,9.90
2022-10-03T19:37:35.879Z,10.80
2022-10-03T19:40:43.695Z,10.80
2022-10-03T19:43:36.127Z,10.80
2022-10-03T19:46:40.736Z,10.80
2022-10-03T19:49:31.947Z,10.70
2022-10-03T19:52:22.554Z,10.70
2022-10-03T19:55:14.966Z,10.60
2022-10-03T19:58:04.476Z,10.50
2022-10-03T20:00:54.964Z,10.40
2022-10-03T20:03:46.978Z,10.40
2022-10-03T20:06:37.667Z,10.40
2022-10-03T20:09:28.690Z,10.30
2022-10-03T20:12:16.186Z,10.30
2022-10-03T20:15:16.558Z,10.40
2022-10-03T20:18:06.918Z,10.30
2022-10-03T20:20:55.473Z,10.20
2022-10-03T20:23:43.950Z,10.20
2022-10-03T20:26:34.756Z,10.20
2022-10-03T20:29:29.759Z,10.20
2022-10-03T20:32:18.071Z,8.90
2022-10-03T20:35:08.095Z,10.20
2022-10-03T20:37:57.974Z,10.20
2022-10-03T20:40:47.662Z,10.20
2022-10-03T20:43:41.654Z,10.30
2022-10-03T20:46:35.761Z,10.30
2022-10-03T20:49:33.338Z,10.40
2022-10-03T20:52:23.484Z,10.30
2022-10-03T20:55:19.632Z,10.30
2022-10-03T20:58:16.391Z,10.40
2022-10-03T21:01:09.112Z,10.40
2022-10-03T21:04:06.991Z,10.40
2022-10-03T21:06:57.939Z,10.40
2022-10-03T21:09:49.807Z,10.30
2022-10-03T21:12:41.325Z,10.30
2022-10-03T21:15:36.441Z,10.30
2022-10-03T21:18:25.475Z,10.20
2022-10-03T21:21:16.354Z,10.30
2022-10-03T21:24:07.250Z,10.10
2022-10-03T21:26:57.048Z,10.10
2022-10-03T21:29:55.659Z,10.10
2022-10-03T21:32:52.403Z,10.10
2022-10-03T21:35:42.345Z,10.10
2022-10-03T21:38:33.034Z,10.00
2022-10-03T21:41:25.275Z,10.00
2022-10-03T21:44:16.824Z,10.00
2022-10-03T21:47:08.598Z,9.90
2022-10-03T21:49:57.344Z,9.80
2022-10-03T21:52:55.069Z,9.80
2022-10-03T21:55:54.519Z,9.80
2022-10-03T21:58:55.134Z,9.70
2022-10-03T22:01:47.510Z,9.70
2022-10-03T22:04:37.915Z,9.60
2022-10-03T22:07:34.678Z,9.70
2022-10-03T22:10:26.251Z,9.60
2022-10-03T22:13:19.185Z,9.60
2022-10-03T22:16:11.330Z,9.60
2022-10-03T22:19:08.904Z,9.50
2022-10-03T22:22:07.459Z,9.50
2022-10-03T22:24:59.976Z,9.50
2022-10-03T22:27:51.232Z,9.50
2022-10-03T22:30:42.682Z,9.50
2022-10-03T22:33:34.764Z,9.50
2022-10-03T22:36:24.772Z,9.50
2022-10-03T22:39:13.823Z,9.50
2022-10-03T22:42:02.224Z,9.40
2022-10-03T22:44:52.864Z,9.40
2022-10-03T22:47:41.121Z,9.40
2022-10-03T22:50:30.579Z,9.40
2022-10-03T22:53:20.830Z,8.70
2022-10-03T22:56:23.448Z,9.30
2022-10-03T22:59:13.229Z,9.30
2022-10-03T23:02:05.074Z,8.40
2022-10-03T23:04:56.450Z,9.40
2022-10-03T23:08:01.953Z,9.30
2022-10-03T23:10:54.372Z,9.40
2022-10-03T23:13:44.053Z,9.30
2022-10-03T23:16:49.568Z,9.40
2022-10-03T23:19:42.389Z,9.30
2022-10-03T23:22:31.276Z,9.40
2022-10-03T23:25:20.804Z,9.40
2022-10-03T23:28:18.936Z,9.40
2022-10-03T23:31:10.637Z,9.40
2022-10-03T23:33:58.152Z,9.50
2022-10-03T23:37:00.769Z,9.40
2022-10-03T23:40:03.126Z,9.40
2022-10-03T23:42:59.121Z,9.40
2022-10-03T23:45:49.472Z,9.40
2022-10-03T23:48:41.131Z,9.40
2022-10-03T23:51:30.385Z,9.20
2022-10-03T23:54:20.358Z,9.30
2022-10-03T23:57:08.746Z,9.30
2022-10-03T23:59:56.412Z,9.40
